createdAt,value
2022-10-17T00:00:47.980Z,11.95
2022-10-17T00:03:14.545Z,11.57
2022-10-17T00:05:43.029Z,11.18
2022-10-17T00:08:11.489Z,11.38
2022-10-17T00:10:38.505Z,10.53
2022-10-17T00:13:05.701Z,10.68
2022-10-17T00:15:33.117Z,11.00
2022-10-17T00:18:00.176Z,11.15
2022-10-17T00:20:26.736Z,11.10
2022-10-17T00:22:53.474Z,11.20
2022-10-17T00:25:20.189Z,10.85
2022-10-17T00:27:46.558Z,11.02
2022-10-17T00:30:15.742Z,10.75
2022-10-17T00:32:42.258Z,11.05
2022-10-17T00:35:09.465Z,11.83
2022-10-17T00:37:36.159Z,10.18
2022-10-17T00:40:03.885Z,10.95
2022-10-17T00:42:30.594Z,10.70
2022-10-17T00:45:13.854Z,10.23
2022-10-17T00:47:41.915Z,10.90
2022-10-17T00:50:09.593Z,10.85
2022-10-17T00:52:36.302Z,10.68
2022-10-17T00:55:07.088Z,10.30
2022-10-17T00:57:33.865Z,11.25
2022-10-17T01:00:06.585Z,10.70
2022-10-17T01:02:33.101Z,10.73
2022-10-17T01:04:59.991Z,10.85
2022-10-17T01:07:33.177Z,10.73
2022-10-17T01:10:05.175Z,11.82
2022-10-17T01:12:40.371Z,11.17
2022-10-17T01:15:14.093Z,10.95
2022-10-17T01:17:46.268Z,11.38
2022-10-17T01:20:12.593Z,11.07
2022-10-17T01:22:44.824Z,11.40
2022-10-17T01:25:52.518Z,11.80
2022-10-17T01:28:40.276Z,11.13
2022-10-17T01:31:12.875Z,10.75
2022-10-17T01:33:45.187Z,11.13
2022-10-17T01:36:17.225Z,11.45
2022-10-17T01:38:53.023Z,11.50
2022-10-17T01:41:35.077Z,11.43
2022-10-17T01:44:08.773Z,11.27
2022-10-17T01:46:49.506Z,11.10
2022-10-17T01:49:21.725Z,11.05
2022-10-17T01:52:02.673Z,11.30
2022-10-17T01:54:47.255Z,12.00
2022-10-17T01:57:35.775Z,11.68
2022-10-17T02:00:08.972Z,11.55
2022-10-17T02:02:36.767Z,10.93
2022-10-17T02:05:04.479Z,11.60
2022-10-17T02:07:31.129Z,11.57
2022-10-17T02:09:57.694Z,11.93
2022-10-17T02:12:42.879Z,11.88
2022-10-17T02:15:29.494Z,11.88
2022-10-17T02:18:18.387Z,11.00
2022-10-17T02:20:59.706Z,11.25
2022-10-17T02:23:34.816Z,11.38
2022-10-17T02:26:15.226Z,11.43
2022-10-17T02:28:52.065Z,11.52
2022-10-17T02:31:30.876Z,11.20
2022-10-17T02:34:16.182Z,11.85
2022-10-17T02:36:49.973Z,11.15
2022-10-17T02:39:18.544Z,11.75
2022-10-17T02:41:47.869Z,11.50
2022-10-17T02:44:14.294Z,11.50
2022-10-17T02:46:42.679Z,11.60
2022-10-17T02:49:20.255Z,11.25
2022-10-17T02:52:16.306Z,11.15
2022-10-17T02:54:47.791Z,11.50
2022-10-17T02:57:19.252Z,10.50
2022-10-17T02:59:47.012Z,10.70
2022-10-17T03:02:13.421Z,11.00
2022-10-17T03:04:43.948Z,10.45
2022-10-17T03:07:10.361Z,10.55
2022-10-17T03:09:36.900Z,10.50
2022-10-17T03:12:03.776Z,10.15
2022-10-17T03:14:30.213Z,10.57
2022-10-17T03:16:56.606Z,10.18
2022-10-17T03:19:23.241Z,10.18
2022-10-17T03:21:49.657Z,9.73
2022-10-17T03:24:16.043Z,9.50
2022-10-17T03:26:42.467Z,9.52
2022-10-17T03:29:08.921Z,10.00
2022-10-17T03:31:36.144Z,9.57
2022-10-17T03:34:02.940Z,10.33
2022-10-17T03:36:29.407Z,9.23
2022-10-17T03:38:55.972Z,9.10
2022-10-17T03:41:22.363Z,9.18
2022-10-17T03:43:48.813Z,9.13
2022-10-17T03:46:15.288Z,9.03
2022-10-17T03:48:41.700Z,10.15
2022-10-17T03:51:09.515Z,9.90
2022-10-17T03:53:35.924Z,9.18
2022-10-17T03:56:15.526Z,9.10
2022-10-17T03:58:42.550Z,8.57
2022-10-17T04:01:11.413Z,8.60
2022-10-17T04:03:38.096Z,9.40
2022-10-17T04:06:05.560Z,9.70
2022-10-17T04:08:33.108Z,8.48
2022-10-17T04:11:05.011Z,10.23
2022-10-17T04:13:32.161Z,8.95
2022-10-17T04:16:04.980Z,8.73
2022-10-17T04:18:32.013Z,9.98
2022-10-17T04:20:58.398Z,9.45
2022-10-17T04:23:24.783Z,8.63
2022-10-17T04:25:56.290Z,8.88
2022-10-17T04:28:23.131Z,9.15
2022-10-17T04:31:03.510Z,8.63
2022-10-17T04:33:31.861Z,9.05
2022-10-17T04:35:58.213Z,8.80
2022-10-17T04:38:27.753Z,8.52
2022-10-17T04:40:58.083Z,8.02
2022-10-17T04:43:24.571Z,7.90
2022-10-17T04:45:50.959Z,8.18
2022-10-17T04:48:17.319Z,8.10
2022-10-17T04:50:53.881Z,7.63
2022-10-17T04:53:20.421Z,7.90
2022-10-17T04:55:46.864Z,8.23
2022-10-17T04:58:13.339Z,7.78
2022-10-17T05:00:39.880Z,9.00
2022-10-17T05:03:06.447Z,7.22
2022-10-17T05:05:32.957Z,7.80
2022-10-17T05:07:59.442Z,8.02
2022-10-17T05:10:25.898Z,8.15
2022-10-17T05:12:53.119Z,8.23
2022-10-17T05:15:19.544Z,8.02
2022-10-17T05:17:45.931Z,7.63
2022-10-17T05:20:12.372Z,8.40
2022-10-17T05:22:41.279Z,8.40
2022-10-17T05:25:08.927Z,8.43
2022-10-17T05:27:35.318Z,8.40
2022-10-17T05:30:01.734Z,8.20
2022-10-17T05:32:28.398Z,9.02
2022-10-17T05:34:55.015Z,8.65
2022-10-17T05:37:21.451Z,9.20
2022-10-17T05:39:50.696Z,9.00
2022-10-17T05:42:18.081Z,8.65
2022-10-17T05:44:44.454Z,9.60
2022-10-17T05:47:10.903Z,8.85
2022-10-17T05:49:47.376Z,9.00
2022-10-17T05:52:17.964Z,9.00
2022-10-17T05:54:44.392Z,9.60
2022-10-17T05:57:11.239Z,9.43
2022-10-17T05:59:37.640Z,10.05
2022-10-17T06:02:04.237Z,8.90
2022-10-17T06:04:30.700Z,9.15
2022-10-17T06:06:57.149Z,8.98
2022-10-17T06:09:24.096Z,9.40
2022-10-17T06:11:50.499Z,9.35
2022-10-17T06:14:16.927Z,8.83
2022-10-17T06:16:43.342Z,9.13
2022-10-17T06:19:09.794Z,8.88
2022-10-17T06:21:36.196Z,9.30
2022-10-17T06:24:02.596Z,8.40
2022-10-17T06:26:29.152Z,9.30
2022-10-17T06:28:55.724Z,8.90
2022-10-17T06:31:22.203Z,9.20
2022-10-17T06:33:48.622Z,9.27
2022-10-17T06:36:15.333Z,8.60
2022-10-17T06:38:41.834Z,8.50
2022-10-17T06:41:16.548Z,8.82
2022-10-17T06:43:44.014Z,8.32
2022-10-17T06:46:10.482Z,8.80
2022-10-17T06:48:36.976Z,8.30
2022-10-17T06:51:04.909Z,8.10
2022-10-17T06:53:33.685Z,8.73
2022-10-17T06:56:00.666Z,8.57
2022-10-17T06:58:28.528Z,9.13
2022-10-17T07:01:02.187Z,8.90
2022-10-17T07:03:29.329Z,8.70
2022-10-17T07:05:56.263Z,8.88
2022-10-17T07:08:23.475Z,9.48
2022-10-17T07:10:50.852Z,9.43
2022-10-17T07:13:18.416Z,10.27
2022-10-17T07:15:45.044Z,10.33
2022-10-17T07:18:11.535Z,10.63
2022-10-17T07:20:38.127Z,11.77
2022-10-17T07:23:04.659Z,12.45
2022-10-17T07:25:31.175Z,11.85
2022-10-17T07:27:58.476Z,11.50
2022-10-17T07:30:25.367Z,11.55
2022-10-17T07:32:54.579Z,11.55
2022-10-17T07:35:21.270Z,11.25
2022-10-17T07:37:47.697Z,10.32
2022-10-17T07:40:14.071Z,12.70
2022-10-17T07:45:11.799Z,11.98
2022-10-17T07:47:38.180Z,11.80
2022-10-17T07:50:05.791Z,12.48
2022-10-17T07:52:32.636Z,12.37
2022-10-17T07:54:59.208Z,12.23
2022-10-17T07:57:25.989Z,13.30
2022-10-17T07:59:52.396Z,13.00
2022-10-17T08:02:23.058Z,12.75
2022-10-17T08:04:50.079Z,13.07
2022-10-17T08:07:24.146Z,12.70
2022-10-17T08:09:53.473Z,13.38
2022-10-17T08:12:20.057Z,13.07
2022-10-17T08:14:46.543Z,13.43
2022-10-17T08:17:12.985Z,15.23
2022-10-17T08:19:40.290Z,15.20
2022-10-17T08:22:07.525Z,13.50
2022-10-17T08:24:34.238Z,14.88
2022-10-17T08:27:00.937Z,15.30
2022-10-17T08:29:27.839Z,13.90
2022-10-17T08:31:58.685Z,15.20
2022-10-17T08:34:27.960Z,17.08
2022-10-17T08:36:54.471Z,16.00
2022-10-17T08:39:21.023Z,17.98
2022-10-17T08:42:00.513Z,15.77
2022-10-17T08:44:36.500Z,15.32
2022-10-17T08:47:11.388Z,17.60
2022-10-17T08:49:45.460Z,17.13
2022-10-17T08:52:20.795Z,18.05
2022-10-17T08:54:48.780Z,18.87
2022-10-17T08:57:16.875Z,19.33
2022-10-17T08:59:44.896Z,18.85
2022-10-17T09:02:48.935Z,19.60
2022-10-17T09:05:28.224Z,19.48
2022-10-17T09:08:12.718Z,20.00
2022-10-17T09:10:45.292Z,19.42
2022-10-17T09:13:31.988Z,19.00
2022-10-17T09:16:16.662Z,18.10
2022-10-17T09:18:47.701Z,17.02
2022-10-17T09:21:23.295Z,16.53
2022-10-17T09:23:59.659Z,17.73
2022-10-17T09:26:35.822Z,16.35
2022-10-17T09:29:02.366Z,15.50
2022-10-17T09:31:42.506Z,15.73
2022-10-17T09:34:11.010Z,14.67
2022-10-17T09:36:40.490Z,15.68
2022-10-17T09:39:18.438Z,14.18
2022-10-17T09:41:54.077Z,14.07
2022-10-17T09:44:30.423Z,14.18
2022-10-17T09:47:18.415Z,12.77
2022-10-17T09:49:47.038Z,12.13
2022-10-17T09:52:27.091Z,13.15
2022-10-17T09:54:59.869Z,13.05
2022-10-17T09:57:26.344Z,12.98
2022-10-17T09:59:57.665Z,12.30
2022-10-17T10:02:25.881Z,12.35
2022-10-17T10:05:03.606Z,11.75
2022-10-17T10:07:40.346Z,12.18
2022-10-17T10:10:23.311Z,12.77
2022-10-17T10:13:14.435Z,12.07
2022-10-17T10:15:43.620Z,11.32
2022-10-17T10:18:25.093Z,11.25
2022-10-17T10:21:05.944Z,12.15
2022-10-17T10:23:33.033Z,12.45
2022-10-17T10:26:04.051Z,10.80
2022-10-17T10:28:36.380Z,11.05
2022-10-17T10:31:08.671Z,11.05
2022-10-17T10:33:41.771Z,10.13
2022-10-17T10:36:08.886Z,10.65
2022-10-17T10:38:37.970Z,11.33
2022-10-17T10:41:07.261Z,12.15
2022-10-17T10:43:49.187Z,11.50
2022-10-17T10:46:20.067Z,12.55
2022-10-17T10:49:00.640Z,11.95
2022-10-17T10:51:40.455Z,11.43
2022-10-17T10:54:28.069Z,12.13
2022-10-17T10:56:58.071Z,11.52
2022-10-17T10:59:37.363Z,12.63
2022-10-17T11:02:31.084Z,11.68
2022-10-17T11:05:04.268Z,12.03
2022-10-17T11:07:42.087Z,11.57
2022-10-17T11:10:27.226Z,10.27
2022-10-17T11:13:08.571Z,11.38
2022-10-17T11:15:47.346Z,10.95
2022-10-17T11:18:32.367Z,11.10
2022-10-17T11:21:19.018Z,10.85
2022-10-17T11:23:56.348Z,10.50
2022-10-17T11:26:33.427Z,10.45
2022-10-17T11:29:03.835Z,11.27
2022-10-17T11:31:41.572Z,10.30
2022-10-17T11:34:20.100Z,10.65
2022-10-17T11:36:50.441Z,9.90
2022-10-17T11:39:22.764Z,9.23
2022-10-17T11:42:10.701Z,10.05
2022-10-17T11:44:39.613Z,9.40
2022-10-17T11:47:22.103Z,9.73
2022-10-17T11:53:31.197Z,9.40
2022-10-17T11:56:00.948Z,9.65
2022-10-17T11:59:06.087Z,8.40
2022-10-17T12:01:47.480Z,8.15
2022-10-17T12:04:37.840Z,8.48
2022-10-17T12:07:10.135Z,8.65
2022-10-17T12:09:51.784Z,8.93
2022-10-17T12:12:33.562Z,9.67
2022-10-17T12:15:21.919Z,9.10
2022-10-17T12:18:02.312Z,10.18
2022-10-17T12:20:28.712Z,11.02
2022-10-17T12:23:04.932Z,11.00
2022-10-17T12:25:34.232Z,10.90
2022-10-17T12:28:26.227Z,11.88
2022-10-17T12:31:01.985Z,11.75
2022-10-17T12:33:38.925Z,11.23
2022-10-17T12:36:17.548Z,11.68
2022-10-17T12:39:11.525Z,11.67
2022-10-17T12:41:37.942Z,11.48
2022-10-17T12:44:13.325Z,12.20
2022-10-17T12:46:45.696Z,11.77
2022-10-17T12:49:41.516Z,12.30
2022-10-17T12:52:26.449Z,11.47
2022-10-17T12:55:13.388Z,11.18
2022-10-17T12:57:53.554Z,11.75
2022-10-17T13:00:27.251Z,11.43
2022-10-17T13:03:01.912Z,11.07
2022-10-17T13:05:33.974Z,12.93
2022-10-17T13:08:05.891Z,10.35
2022-10-17T13:10:35.895Z,10.85
2022-10-17T13:13:16.840Z,10.15
2022-10-17T13:15:51.233Z,10.38
2022-10-17T13:18:26.445Z,9.83
2022-10-17T13:21:04.022Z,11.15
2022-10-17T13:23:33.579Z,10.18
2022-10-17T13:26:15.148Z,10.60
2022-10-17T13:28:43.446Z,11.57
2022-10-17T13:31:31.917Z,10.90
2022-10-17T13:34:01.739Z,11.88
2022-10-17T13:36:29.577Z,11.38
2022-10-17T13:38:59.129Z,11.45
2022-10-17T13:41:37.086Z,10.82
2022-10-17T13:44:11.934Z,10.90
2022-10-17T13:46:39.932Z,11.43
2022-10-17T13:49:34.414Z,11.02
2022-10-17T13:52:03.791Z,9.73
2022-10-17T13:54:40.265Z,10.88
2022-10-17T13:57:24.942Z,11.07
2022-10-17T13:59:59.827Z,9.65
2022-10-17T14:02:31.704Z,9.50
2022-10-17T14:05:20.168Z,9.75
2022-10-17T14:08:11.455Z,10.82
2022-10-17T14:10:41.120Z,9.70
2022-10-17T14:13:19.555Z,9.50
2022-10-17T14:15:46.625Z,9.77
2022-10-17T14:18:23.710Z,9.38
2022-10-17T14:23:43.242Z,9.03
2022-10-17T14:26:14.237Z,9.90
2022-10-17T14:28:46.085Z,10.07
2022-10-17T14:31:21.840Z,9.85
2022-10-17T14:33:51.176Z,9.50
2022-10-17T14:36:19.568Z,9.90
2022-10-17T14:38:49.888Z,10.15
2022-10-17T14:41:43.473Z,9.82
2022-10-17T14:44:24.183Z,10.85
2022-10-17T14:46:54.673Z,9.45
2022-10-17T14:49:51.400Z,9.80
2022-10-17T14:52:28.523Z,10.13
2022-10-17T14:54:56.531Z,9.73
2022-10-17T14:57:28.328Z,9.75
2022-10-17T14:59:56.319Z,9.15
2022-10-17T15:02:27.822Z,8.60
2022-10-17T15:04:54.921Z,9.07
2022-10-17T15:07:21.799Z,8.70
2022-10-17T15:09:51.579Z,9.25
2022-10-17T15:12:23.655Z,9.35
2022-10-17T15:14:50.368Z,8.43
2022-10-17T15:17:25.902Z,8.80
2022-10-17T15:19:52.567Z,8.25
2022-10-17T15:22:18.965Z,8.50
2022-10-17T15:24:46.025Z,8.57
2022-10-17T15:27:23.923Z,9.77
2022-10-17T15:29:50.958Z,9.73
2022-10-17T15:32:17.611Z,9.60
2022-10-17T15:34:44.503Z,9.75
2022-10-17T15:37:24.010Z,10.23
2022-10-17T15:39:55.097Z,9.90
2022-10-17T15:42:30.592Z,9.70
2022-10-17T15:44:57.970Z,9.63
2022-10-17T15:47:26.351Z,9.82
2022-10-17T15:49:53.701Z,8.70
2022-10-17T15:52:20.700Z,8.50
2022-10-17T15:54:47.372Z,8.70
2022-10-17T15:57:18.940Z,8.85
2022-10-17T15:59:46.754Z,8.93
2022-10-17T16:02:14.846Z,9.10
2022-10-17T16:04:41.609Z,8.50
2022-10-17T16:07:08.057Z,8.52
2022-10-17T16:09:35.255Z,8.30
2022-10-17T16:12:02.257Z,8.73
2022-10-17T16:14:28.700Z,8.13
2022-10-17T16:16:55.170Z,8.63
2022-10-17T16:19:21.524Z,8.60
2022-10-17T16:21:47.952Z,9.07
2022-10-17T16:24:14.390Z,8.82
2022-10-17T16:26:41.059Z,9.30
2022-10-17T16:29:07.656Z,9.60
2022-10-17T16:31:35.591Z,9.52
2022-10-17T16:34:03.916Z,10.45
2022-10-17T16:36:30.519Z,10.07
2022-10-17T16:38:56.921Z,11.02
2022-10-17T16:41:31.423Z,11.43
2022-10-17T16:44:04.670Z,12.43
2022-10-17T16:46:32.638Z,12.18
2022-10-17T16:48:59.524Z,12.10
2022-10-17T16:51:26.025Z,14.50
2022-10-17T16:53:53.124Z,17.03
2022-10-17T16:56:21.725Z,17.38
2022-10-17T16:58:48.653Z,15.27
2022-10-17T17:01:18.080Z,15.30
2022-10-17T17:03:46.071Z,15.02
2022-10-17T17:06:16.205Z,14.97
2022-10-17T17:08:43.392Z,15.77
2022-10-17T17:11:11.660Z,14.25
2022-10-17T17:13:39.001Z,15.35
2022-10-17T17:16:10.895Z,14.55
2022-10-17T17:18:38.242Z,14.10
2022-10-17T17:21:07.308Z,15.88
2022-10-17T17:23:36.130Z,15.65
2022-10-17T17:26:06.019Z,15.00
2022-10-17T17:28:33.411Z,14.90
2022-10-17T17:30:59.831Z,14.43
2022-10-17T17:33:26.686Z,15.95
2022-10-17T17:35:58.821Z,15.60
2022-10-17T17:38:25.687Z,15.73
2022-10-17T17:40:52.217Z,16.58
2022-10-17T17:43:18.915Z,16.07
2022-10-17T17:45:45.955Z,16.38
2022-10-17T17:48:12.532Z,15.68
2022-10-17T17:50:40.969Z,17.35
2022-10-17T17:53:09.153Z,15.10
2022-10-17T17:55:36.170Z,15.93
2022-10-17T17:58:03.037Z,16.00
2022-10-17T18:00:29.522Z,16.88
2022-10-17T18:02:57.058Z,16.00
2022-10-17T18:05:23.671Z,16.92
2022-10-17T18:07:50.066Z,16.17
2022-10-17T18:10:16.594Z,15.32
2022-10-17T18:12:43.612Z,15.48
2022-10-17T18:15:10.754Z,15.88
2022-10-17T18:17:37.385Z,17.70
2022-10-17T18:20:05.483Z,17.33
2022-10-17T18:22:32.386Z,15.20
2022-10-17T18:24:59.119Z,16.75
2022-10-17T18:27:25.565Z,17.15
2022-10-17T18:29:51.978Z,17.55
2022-10-17T18:32:18.419Z,17.63
2022-10-17T18:34:44.838Z,18.73
2022-10-17T18:37:11.265Z,17.23
2022-10-17T18:39:37.710Z,16.58
2022-10-17T18:42:04.252Z,16.73
2022-10-17T18:44:30.611Z,17.10
2022-10-17T18:46:59.876Z,17.83
2022-10-17T18:49:29.510Z,18.92
2022-10-17T18:51:55.936Z,17.52
2022-10-17T18:54:22.336Z,18.50
2022-10-17T18:56:54.464Z,16.57
2022-10-17T18:59:21.776Z,16.40
2022-10-17T19:01:48.823Z,18.02
2022-10-17T19:04:15.721Z,17.90
2022-10-17T19:06:42.878Z,17.58
2022-10-17T19:09:11.697Z,18.70
2022-10-17T19:11:38.714Z,18.27
2022-10-17T19:14:07.653Z,19.15
2022-10-17T19:16:36.159Z,19.92
2022-10-17T19:19:05.885Z,19.15
2022-10-17T19:21:33.514Z,18.53
2022-10-17T19:24:05.461Z,20.00
2022-10-17T19:26:33.891Z,19.13
2022-10-17T19:29:01.205Z,20.10
2022-10-17T19:31:29.956Z,20.75
2022-10-17T19:33:56.770Z,20.77
2022-10-17T19:36:30.459Z,22.17
2022-10-17T19:39:02.605Z,22.13
2022-10-17T19:41:29.049Z,20.80
2022-10-17T19:43:55.507Z,22.27
2022-10-17T19:46:24.416Z,20.53
2022-10-17T19:48:51.652Z,20.60
2022-10-17T19:51:20.576Z,20.15
2022-10-17T19:53:47.853Z,20.25
2022-10-17T19:56:14.444Z,21.05
2022-10-17T19:58:40.828Z,20.23
2022-10-17T20:01:07.375Z,20.90
2022-10-17T20:03:33.801Z,20.90
2022-10-17T20:06:00.267Z,20.25
2022-10-17T20:11:03.109Z,20.03
2022-10-17T20:13:29.491Z,19.58
2022-10-17T20:15:57.154Z,19.85
2022-10-17T20:18:24.791Z,18.50
2022-10-17T20:20:51.336Z,18.92
2022-10-17T20:23:17.886Z,18.93
2022-10-17T20:25:44.417Z,21.10
2022-10-17T20:28:11.426Z,20.95
2022-10-17T20:30:43.693Z,19.02
2022-10-17T20:33:10.104Z,19.95
2022-10-17T20:35:41.433Z,19.07
2022-10-17T20:38:07.900Z,17.30
2022-10-17T20:40:35.571Z,17.55
2022-10-17T20:43:05.649Z,18.65
2022-10-17T20:45:50.341Z,17.88
2022-10-17T20:48:18.522Z,17.23
2022-10-17T20:50:45.012Z,18.25
2022-10-17T20:56:08.457Z,19.85
2022-10-17T20:58:35.410Z,21.20
2022-10-17T21:01:06.679Z,20.43
2022-10-17T21:03:35.803Z,19.90
2022-10-17T21:06:02.337Z,18.83
2022-10-17T21:08:28.697Z,19.58
2022-10-17T21:10:55.096Z,19.67
2022-10-17T21:13:21.512Z,22.40
2022-10-17T21:15:47.870Z,19.10
2022-10-17T21:18:14.279Z,19.58
2022-10-17T21:20:40.661Z,18.75
2022-10-17T21:23:07.061Z,18.08
2022-10-17T21:25:33.463Z,17.00
2022-10-17T21:28:00.044Z,18.08
2022-10-17T21:30:26.504Z,19.05
2022-10-17T21:32:54.257Z,17.45
2022-10-17T21:35:20.904Z,16.88
2022-10-17T21:37:47.330Z,19.33
2022-10-17T21:40:14.039Z,19.52
2022-10-17T21:42:40.523Z,18.25
2022-10-17T21:45:15.247Z,17.85
2022-10-17T21:48:11.126Z,20.20
2022-10-17T21:50:33.030Z,18.50
2022-10-17T21:52:59.415Z,18.90
2022-10-17T21:55:25.803Z,21.85
2022-10-17T21:57:52.234Z,21.70
2022-10-17T22:00:18.745Z,20.95
2022-10-17T22:02:45.130Z,21.33
2022-10-17T22:05:11.513Z,18.17
2022-10-17T22:07:37.901Z,18.45
2022-10-17T22:10:04.883Z,17.77
2022-10-17T22:12:31.572Z,18.85
2022-10-17T22:14:58.092Z,18.23
2022-10-17T22:17:24.484Z,16.92
2022-10-17T22:19:50.869Z,20.48
2022-10-17T22:22:17.304Z,23.58
2022-10-17T22:24:43.733Z,24.52
2022-10-17T22:27:10.130Z,21.80
2022-10-17T22:29:36.539Z,21.30
2022-10-17T22:32:02.998Z,24.35
2022-10-17T22:34:29.406Z,25.10
2022-10-17T22:36:55.814Z,24.45
2022-10-17T22:39:22.251Z,25.37
2022-10-17T22:41:48.647Z,25.38
2022-10-17T22:44:15.009Z,24.35
2022-10-17T22:46:41.391Z,23.13
2022-10-17T22:49:07.785Z,23.48
2022-10-17T22:51:34.240Z,24.03
2022-10-17T22:54:00.766Z,25.63
2022-10-17T22:56:27.206Z,26.92
2022-10-17T22:58:53.689Z,24.92
2022-10-17T23:01:22.757Z,25.52
2022-10-17T23:03:49.819Z,20.73
2022-10-17T23:06:17.254Z,21.25
2022-10-17T23:08:43.721Z,22.73
2022-10-17T23:11:10.600Z,24.05
2022-10-17T23:13:37.469Z,23.05
2022-10-17T23:16:04.210Z,22.70
2022-10-17T23:20:57.137Z,24.15
2022-10-17T23:23:23.543Z,21.23
2022-10-17T23:25:50.854Z,19.38
2022-10-17T23:28:17.614Z,19.07
2022-10-17T23:30:44.228Z,17.40
2022-10-17T23:33:12.135Z,21.25
2022-10-17T23:35:38.641Z,21.88
2022-10-17T23:38:05.047Z,23.00
2022-10-17T23:40:31.425Z,20.27
2022-10-17T23:42:57.846Z,19.20
2022-10-17T23:45:24.289Z,19.40
2022-10-17T23:47:50.697Z,16.02
2022-10-17T23:50:17.168Z,17.90
2022-10-17T23:52:43.671Z,18.17
2022-10-17T23:55:10.492Z,18.83
2022-10-17T23:57:36.886Z,19.70
